M Y Perle Bleue — V7NM3 — position and weather

sailwx.info

Track history (hours):
 
Tides and Currents Weather Stations Pressure Air Temp Water Temp Dewpoint Dewpoint Depression Visibility Wind Speed Wind Dir Waves Ship Positions

M Y Perle Bleue

Last reported at 2018-Jun-21 13:48 UTC. Time now 2018-Jun-22 23:02 UTC.
Position N 43°35' E 007°07'.

Length 38 m; draft 2.7 m.

Type: Pleasure craft. MMSI: 538070424.

Date/timePositionNaut miles runAvg speedWind from/ knotsBaromVisibWave heightAir tempDewpointWater temp
2018-Jun-21 13:48N 43°35' E 007°07'0 0.0
2018-Jun-21 13:25N 43°35' E 007°07'0 0.0
2018-Jun-21 12:59N 43°35' E 007°07'3 1.3
2018-Jun-21 10:30N 43°32' E 007°09'510.0
2018-Jun-21 10:00N 43°29' E 007°04'39 1.0
2018-Jun-19 18:04N 42°58' E 007°34'2 9.8
2018-Jun-19 17:54N 42°57' E 007°36'8 9.2
2018-Jun-19 17:04N 42°54' E 007°47'1 9.9
2018-Jun-19 16:56N 42°54' E 007°48'  
Track history (hours):
 
Tides and Currents Weather Stations Pressure Air Temp Water Temp Dewpoint Dewpoint Depression Visibility Wind Speed Wind Dir Waves Ship Positions

M Y Perle Bleue

Last reported at 2018-Jun-21 13:48 UTC. Time now 2018-Jun-22 23:02 UTC.
Position N 43°35' E 007°07'.

Length 38 m; draft 2.7 m.

Type: Pleasure craft. MMSI: 538070424.

Date/timePositionNaut miles runAvg speedWind from/ knotsBaromVisibWave heightAir tempDewpointWater temp
2018-Jun-21 13:48N 43°35' E 007°07'0 0.0
2018-Jun-21 13:25N 43°35' E 007°07'0 0.0
2018-Jun-21 12:59N 43°35' E 007°07'3 1.3
2018-Jun-21 10:30N 43°32' E 007°09'510.0
2018-Jun-21 10:00N 43°29' E 007°04'39 1.0
2018-Jun-19 18:04N 42°58' E 007°34'2 9.8
2018-Jun-19 17:54N 42°57' E 007°36'8 9.2
2018-Jun-19 17:04N 42°54' E 007°47'1 9.9
2018-Jun-19 16:56N 42°54' E 007°48'  

Dump ship's entire track history